DLH5MT EDDH-EDLW
Flight info
| Callsign | DLH5MT |
|---|---|
| Flight time | 0h 31m |
| Altitude | 22000 |
| Route | HABFU1G HABFU Y348 DOMEG DOMEG2A |
| Aircraft | A320/M-SDE3FGHIRWY/LB1 |
Departure
| Time | 2026-05-04 14:17 |
|---|---|
| Airport | Hamburg Helmut Schmidt Airport (EDDH) |
Arrival
| Time | 2026-05-04 14:48 |
|---|---|
| Airport | Dortmund Airport (EDLW) |
| Time | Latitude | Longitude | Altitude | Speed | Heading |
|---|---|---|---|---|---|
| 2026-05-04 13:48 | 53.63074 | 10.00378 | 49 ft | 0 kts | 94° |
| 2026-05-04 14:09 | 53.63075 | 10.00351 | 48 ft | 2 kts | 94° |
| 2026-05-04 14:09 | 53.63076 | 10.00323 | 48 ft | 2 kts | 113° |
| 2026-05-04 14:10 | 53.63092 | 10.00273 | 47 ft | 2 kts | 132° |
| 2026-05-04 14:10 | 53.63101 | 10.00261 | 45 ft | 0 kts | 175° |
| 2026-05-04 14:12 | 53.63099 | 10.00262 | 44 ft | 3 kts | 175° |
| 2026-05-04 14:13 | 53.63023 | 10.00203 | 48 ft | 16 kts | 213° |
| 2026-05-04 14:13 | 53.62927 | 10.00104 | 48 ft | 16 kts | 214° |
| 2026-05-04 14:13 | 53.62850 | 9.99971 | 48 ft | 17 kts | 240° |
| 2026-05-04 14:13 | 53.62816 | 9.99810 | 45 ft | 11 kts | 281° |
| 2026-05-04 14:14 | 53.62844 | 9.99766 | 45 ft | 2 kts | 329° |
| 2026-05-04 14:16 | 53.62852 | 9.99759 | 45 ft | 7 kts | 330° |
| 2026-05-04 14:16 | 53.63018 | 9.99619 | 45 ft | 57 kts | 333° |
| 2026-05-04 14:17 | 53.64465 | 9.98319 | 199 ft | 157 kts | 330° |
| 2026-05-04 14:17 | 53.65427 | 9.97479 | 919 ft | 156 kts | 332° |
| 2026-05-04 14:17 | 53.67398 | 9.96002 | 2295 ft | 162 kts | 334° |
| 2026-05-04 14:18 | 53.68483 | 9.95298 | 2878 ft | 172 kts | 335° |
| 2026-05-04 14:18 | 53.70547 | 9.93080 | 3881 ft | 189 kts | 304° |
| 2026-05-04 14:19 | 53.71532 | 9.89025 | 5090 ft | 198 kts | 268° |
| 2026-05-04 14:19 | 53.71220 | 9.86595 | 5300 ft | 229 kts | 255° |
| 2026-05-04 14:19 | 53.70714 | 9.83848 | 5482 ft | 261 kts | 251° |
| 2026-05-04 14:19 | 53.70059 | 9.80937 | 6422 ft | 263 kts | 249° |
| 2026-05-04 14:20 | 53.69397 | 9.78074 | 7470 ft | 262 kts | 249° |
| 2026-05-04 14:20 | 53.68752 | 9.75184 | 8436 ft | 265 kts | 250° |
| 2026-05-04 14:20 | 53.68121 | 9.72249 | 9364 ft | 268 kts | 250° |
| 2026-05-04 14:21 | 53.66862 | 9.66104 | 10594 ft | 297 kts | 252° |
| 2026-05-04 14:21 | 53.66147 | 9.62695 | 10925 ft | 318 kts | 246° |
| 2026-05-04 14:21 | 53.65021 | 9.59422 | 11571 ft | 327 kts | 234° |
| 2026-05-04 14:21 | 53.63441 | 9.56618 | 12347 ft | 334 kts | 221° |
| 2026-05-04 14:22 | 53.61478 | 9.54468 | 13134 ft | 340 kts | 211° |
| 2026-05-04 14:22 | 53.59382 | 9.52559 | 13880 ft | 344 kts | 211° |
| 2026-05-04 14:22 | 53.57267 | 9.50628 | 14573 ft | 348 kts | 211° |
| 2026-05-04 14:22 | 53.55134 | 9.48678 | 15307 ft | 350 kts | 211° |
| 2026-05-04 14:23 | 53.50854 | 9.44770 | 16753 ft | 354 kts | 211° |
| 2026-05-04 14:23 | 53.48686 | 9.42791 | 17470 ft | 356 kts | 212° |
| 2026-05-04 14:23 | 53.46500 | 9.40800 | 18182 ft | 358 kts | 212° |
| 2026-05-04 14:24 | 53.44302 | 9.38799 | 18785 ft | 360 kts | 212° |
| 2026-05-04 14:24 | 53.42093 | 9.36789 | 19363 ft | 363 kts | 212° |
| 2026-05-04 14:24 | 53.39871 | 9.34768 | 19945 ft | 365 kts | 212° |
| 2026-05-04 14:24 | 53.37626 | 9.32729 | 20513 ft | 367 kts | 212° |
| 2026-05-04 14:25 | 53.35370 | 9.30687 | 21066 ft | 370 kts | 212° |
| 2026-05-04 14:25 | 53.30567 | 9.27410 | 21924 ft | 381 kts | 196° |
| 2026-05-04 14:25 | 53.27940 | 9.26597 | 21982 ft | 388 kts | 194° |
| 2026-05-04 14:26 | 53.25273 | 9.25810 | 21984 ft | 390 kts | 194° |
| 2026-05-04 14:26 | 53.22599 | 9.25034 | 21985 ft | 391 kts | 194° |
| 2026-05-04 14:26 | 53.19918 | 9.24254 | 21986 ft | 391 kts | 194° |
| 2026-05-04 14:26 | 53.17246 | 9.23470 | 21983 ft | 391 kts | 194° |
| 2026-05-04 14:27 | 53.14559 | 9.22623 | 21047 ft | 401 kts | 200° |
| 2026-05-04 14:27 | 53.12092 | 9.21210 | 22215 ft | 365 kts | 201° |
| 2026-05-04 14:27 | 53.09582 | 9.20208 | 22442 ft | 381 kts | 195° |
| 2026-05-04 14:27 | 53.06924 | 9.19558 | 22040 ft | 389 kts | 191° |
| 2026-05-04 14:28 | 53.04219 | 9.19082 | 21968 ft | 391 kts | 190° |
| 2026-05-04 14:28 | 53.01543 | 9.18602 | 21987 ft | 392 kts | 191° |
| 2026-05-04 14:28 | 52.98841 | 9.18022 | 21985 ft | 392 kts | 193° |
| 2026-05-04 14:28 | 52.96167 | 9.17238 | 21984 ft | 388 kts | 199° |
| 2026-05-04 14:29 | 52.91320 | 9.13602 | 21985 ft | 382 kts | 212° |
| 2026-05-04 14:29 | 52.87415 | 9.10127 | 21983 ft | 384 kts | 211° |
| 2026-05-04 14:30 | 52.85049 | 9.08063 | 21985 ft | 384 kts | 211° |
| 2026-05-04 14:30 | 52.82676 | 9.06003 | 21984 ft | 385 kts | 211° |
| 2026-05-04 14:30 | 52.77937 | 9.01892 | 21980 ft | 385 kts | 211° |
| 2026-05-04 14:31 | 52.75565 | 8.99836 | 21974 ft | 384 kts | 211° |
| 2026-05-04 14:31 | 52.70837 | 8.95731 | 21966 ft | 384 kts | 211° |
| 2026-05-04 14:32 | 52.66101 | 8.91619 | 21940 ft | 384 kts | 210° |
| 2026-05-04 14:32 | 52.63736 | 8.89564 | 21944 ft | 384 kts | 210° |
| 2026-05-04 14:32 | 52.61369 | 8.87508 | 21945 ft | 384 kts | 210° |
| 2026-05-04 14:32 | 52.59001 | 8.85454 | 21948 ft | 385 kts | 210° |
| 2026-05-04 14:33 | 52.56636 | 8.83404 | 21956 ft | 385 kts | 210° |
| 2026-05-04 14:33 | 52.54265 | 8.81356 | 21960 ft | 385 kts | 210° |
| 2026-05-04 14:33 | 52.51894 | 8.79316 | 21967 ft | 385 kts | 210° |
| 2026-05-04 14:33 | 52.49520 | 8.77274 | 21968 ft | 385 kts | 210° |
| 2026-05-04 14:34 | 52.47150 | 8.75235 | 21966 ft | 385 kts | 210° |
| 2026-05-04 14:34 | 52.44779 | 8.73198 | 21965 ft | 385 kts | 210° |
| 2026-05-04 14:34 | 52.42409 | 8.71161 | 21953 ft | 385 kts | 210° |
| 2026-05-04 14:34 | 52.40036 | 8.69126 | 21954 ft | 385 kts | 210° |
| 2026-05-04 14:35 | 52.37661 | 8.67096 | 21959 ft | 385 kts | 210° |
| 2026-05-04 14:35 | 52.35313 | 8.65094 | 21960 ft | 385 kts | 210° |
| 2026-05-04 14:35 | 52.32938 | 8.63069 | 21958 ft | 385 kts | 210° |
| 2026-05-04 14:35 | 52.30560 | 8.61038 | 21958 ft | 385 kts | 210° |
| 2026-05-04 14:36 | 52.28234 | 8.58878 | 21958 ft | 384 kts | 216° |
| 2026-05-04 14:36 | 52.26175 | 8.56133 | 21956 ft | 382 kts | 225° |
| 2026-05-04 14:36 | 52.24387 | 8.52994 | 21714 ft | 373 kts | 229° |
| 2026-05-04 14:36 | 52.22655 | 8.49873 | 21451 ft | 370 kts | 229° |
| 2026-05-04 14:37 | 52.20927 | 8.46768 | 21180 ft | 369 kts | 228° |
| 2026-05-04 14:37 | 52.19200 | 8.43671 | 20922 ft | 368 kts | 228° |
| 2026-05-04 14:37 | 52.17478 | 8.40588 | 20669 ft | 368 kts | 228° |
| 2026-05-04 14:37 | 52.15757 | 8.37507 | 20433 ft | 367 kts | 228° |
| 2026-05-04 14:38 | 52.14042 | 8.34441 | 20183 ft | 367 kts | 227° |
| 2026-05-04 14:38 | 52.12317 | 8.31364 | 19936 ft | 366 kts | 227° |
| 2026-05-04 14:38 | 52.10599 | 8.28306 | 19692 ft | 366 kts | 227° |
| 2026-05-04 14:38 | 52.08882 | 8.25257 | 19449 ft | 365 kts | 227° |
| 2026-05-04 14:39 | 52.07167 | 8.22213 | 19196 ft | 363 kts | 227° |
| 2026-05-04 14:39 | 52.05479 | 8.19216 | 18833 ft | 357 kts | 227° |
| 2026-05-04 14:39 | 52.03812 | 8.16259 | 18371 ft | 353 kts | 227° |
| 2026-05-04 14:40 | 52.00518 | 8.10428 | 17399 ft | 350 kts | 227° |
| 2026-05-04 14:40 | 51.98882 | 8.07540 | 16760 ft | 351 kts | 227° |
| 2026-05-04 14:40 | 51.97223 | 8.04616 | 16120 ft | 351 kts | 227° |
| 2026-05-04 14:40 | 51.95571 | 8.01709 | 15487 ft | 349 kts | 227° |
| 2026-05-04 14:41 | 51.93878 | 7.98905 | 14872 ft | 347 kts | 219° |
| 2026-05-04 14:41 | 51.91777 | 7.97064 | 14264 ft | 345 kts | 198° |
| 2026-05-04 14:41 | 51.87099 | 7.95286 | 12992 ft | 343 kts | 194° |
| 2026-05-04 14:42 | 51.82469 | 7.93645 | 11290 ft | 335 kts | 194° |
| 2026-05-04 14:42 | 51.80213 | 7.92846 | 10434 ft | 329 kts | 194° |
| 2026-05-04 14:42 | 51.78010 | 7.92066 | 9770 ft | 318 kts | 194° |
| 2026-05-04 14:43 | 51.75886 | 7.91300 | 9115 ft | 307 kts | 193° |
| 2026-05-04 14:43 | 51.73835 | 7.90551 | 8470 ft | 297 kts | 194° |
| 2026-05-04 14:43 | 51.71862 | 7.89724 | 7767 ft | 291 kts | 197° |
| 2026-05-04 14:43 | 51.69929 | 7.88772 | 7000 ft | 289 kts | 199° |
| 2026-05-04 14:44 | 51.68043 | 7.87782 | 6255 ft | 288 kts | 199° |
| 2026-05-04 14:44 | 51.66149 | 7.86773 | 5470 ft | 285 kts | 199° |
| 2026-05-04 14:44 | 51.64277 | 7.85785 | 4716 ft | 280 kts | 199° |
| 2026-05-04 14:44 | 51.62434 | 7.84825 | 3995 ft | 275 kts | 199° |
| 2026-05-04 14:45 | 51.60668 | 7.83847 | 3517 ft | 261 kts | 207° |
| 2026-05-04 14:45 | 51.59278 | 7.82171 | 3191 ft | 244 kts | 229° |
| 2026-05-04 14:45 | 51.58390 | 7.79963 | 2884 ft | 229 kts | 241° |
| 2026-05-04 14:45 | 51.57637 | 7.77795 | 2588 ft | 216 kts | 241° |
| 2026-05-04 14:46 | 51.56917 | 7.75730 | 2325 ft | 207 kts | 241° |
| 2026-05-04 14:46 | 51.56225 | 7.73749 | 2043 ft | 200 kts | 241° |
| 2026-05-04 14:46 | 51.55553 | 7.71831 | 1780 ft | 194 kts | 241° |
| 2026-05-04 14:46 | 51.54908 | 7.69986 | 1525 ft | 184 kts | 240° |
| 2026-05-04 14:47 | 51.54305 | 7.68266 | 1285 ft | 171 kts | 240° |
| 2026-05-04 14:47 | 51.53755 | 7.66697 | 1080 ft | 152 kts | 241° |
| 2026-05-04 14:47 | 51.53277 | 7.65240 | 780 ft | 144 kts | 241° |
| 2026-05-04 14:47 | 51.52796 | 7.63892 | 563 ft | 133 kts | 242° |
| 2026-05-04 14:48 | 51.52321 | 7.62619 | 461 ft | 136 kts | 242° |
| 2026-05-04 14:48 | 51.51913 | 7.61425 | 414 ft | 103 kts | 234° |
| 2026-05-04 14:48 | 51.51713 | 7.60917 | 412 ft | 35 kts | 243° |
| 2026-05-04 14:48 | 51.51613 | 7.60632 | 416 ft | 19 kts | 225° |
| 2026-05-04 14:49 | 51.51544 | 7.60651 | 414 ft | 7 kts | 131° |
| 2026-05-04 14:49 | 51.51535 | 7.60752 | 420 ft | 0 kts | 77° |
| 2026-05-04 14:50 | 51.51547 | 7.60833 | 422 ft | 9 kts | 76° |
| 2026-05-04 14:50 | 51.51566 | 7.60931 | 425 ft | 13 kts | 72° |
| 2026-05-04 14:50 | 51.51585 | 7.61027 | 421 ft | 0 kts | 74° |
| 2026-05-04 14:50 | 51.51584 | 7.61029 | 422 ft | 1 kts | 90° |
| 2026-05-04 14:51 | 51.51560 | 7.61063 | 425 ft | 5 kts | 149° |
| 2026-05-04 14:51 | 51.51538 | 7.61076 | 428 ft | 10 kts | 165° |
| 2026-05-04 14:51 | 51.51484 | 7.61111 | 433 ft | 0 kts | 151° |
| 2026-05-04 14:51 | 51.51466 | 7.61129 | 432 ft | 0 kts | 149° |
| 2026-05-04 14:52 | 51.51469 | 7.61126 | 432 ft | 0 kts | 149° |
| 2026-05-04 14:55 | 51.52178 | 7.62209 | 412 ft | 0 kts | 243° |